createdAt,value
2019-05-10T00:00:03.231Z,66.95
2019-05-10T00:02:28.435Z,68.12
2019-05-10T00:04:53.422Z,69.21
2019-05-10T00:07:18.434Z,70.35
2019-05-10T00:09:24.612Z,71.02
2019-05-10T00:11:59.490Z,71.04
2019-05-10T00:14:22.029Z,71.18
2019-05-10T00:16:29.330Z,71.26
2019-05-10T00:18:36.722Z,71.37
2019-05-10T00:20:44.052Z,70.87
2019-05-10T00:22:51.285Z,71.57
2019-05-10T00:25:04.305Z,72.12
2019-05-10T00:27:07.494Z,71.91
2019-05-10T00:29:14.721Z,72.58
2019-05-10T00:31:22.041Z,72.72
2019-05-10T00:33:29.553Z,72.78
2019-05-10T00:35:36.759Z,72.57
2019-05-10T00:37:44.417Z,73.15
2019-05-10T00:39:51.720Z,72.62
2019-05-10T00:41:58.985Z,73.01
2019-05-10T00:44:06.431Z,71.82
2019-05-10T00:46:13.779Z,72.62
2019-05-10T00:48:21.036Z,73.12
2019-05-10T00:50:28.442Z,73.17
2019-05-10T00:52:35.746Z,72.93
2019-05-10T00:56:45.371Z,72.35
2019-05-10T00:58:52.604Z,72.96
2019-05-10T01:00:59.948Z,73.06
2019-05-10T01:03:07.328Z,73.19
2019-05-10T01:05:14.950Z,73.13
2019-05-10T01:07:22.422Z,73.23
2019-05-10T01:09:29.728Z,73.35
2019-05-10T01:11:37.086Z,73.00
2019-05-10T01:13:44.433Z,72.23
2019-05-10T01:15:52.118Z,72.86
2019-05-10T01:17:59.622Z,72.90
2019-05-10T01:20:07.626Z,72.87
2019-05-10T01:22:15.055Z,73.24
2019-05-10T01:24:22.346Z,73.39
2019-05-10T01:26:29.716Z,73.93
2019-05-10T01:28:36.915Z,74.29
2019-05-10T01:30:44.225Z,74.31
2019-05-10T01:32:51.625Z,74.03
2019-05-10T01:34:58.929Z,72.84
2019-05-10T01:37:06.363Z,73.19
2019-05-10T01:39:13.692Z,73.30
2019-05-10T01:41:21.192Z,73.59
2019-05-10T01:43:28.517Z,73.91
2019-05-10T01:45:35.892Z,73.86
2019-05-10T01:47:43.282Z,74.21
2019-05-10T01:49:50.537Z,74.11
2019-05-10T01:51:57.835Z,74.68
2019-05-10T01:54:05.190Z,74.52
2019-05-10T01:56:12.569Z,74.67
2019-05-10T01:58:19.756Z,75.22
2019-05-10T02:00:27.010Z,72.87
2019-05-10T02:02:34.418Z,73.55
2019-05-10T02:04:41.777Z,74.07
2019-05-10T02:06:49.594Z,74.00
2019-05-10T02:08:56.884Z,74.57
2019-05-10T02:11:04.432Z,74.30
2019-05-10T02:13:12.638Z,74.29
2019-05-10T02:15:20.054Z,74.07
2019-05-10T02:17:27.443Z,74.13
2019-05-10T02:19:34.775Z,73.58
2019-05-10T02:21:42.091Z,73.46
2019-05-10T02:23:49.413Z,73.88
2019-05-10T02:26:08.904Z,73.62
2019-05-10T02:28:05.805Z,73.78
2019-05-10T02:30:13.410Z,74.17
2019-05-10T02:32:20.708Z,74.82
2019-05-10T02:34:28.092Z,75.64
2019-05-10T02:36:35.299Z,76.64
2019-05-10T02:38:42.521Z,75.96
2019-05-10T02:40:49.853Z,75.93
2019-05-10T02:42:57.181Z,73.96
2019-05-10T02:45:04.874Z,75.65
2019-05-10T02:47:12.187Z,77.35
2019-05-10T02:49:20.233Z,76.12
2019-05-10T02:51:27.464Z,75.47
2019-05-10T02:53:35.670Z,76.43
2019-05-10T02:55:43.897Z,76.20
2019-05-10T02:57:51.500Z,76.71
2019-05-10T03:00:01.777Z,76.20
2019-05-10T03:02:09.633Z,76.46
2019-05-10T03:04:17.044Z,77.15
2019-05-10T03:06:28.890Z,77.03
2019-05-10T03:08:51.284Z,77.85
2019-05-10T03:11:00.225Z,77.67
2019-05-10T03:13:09.119Z,77.04
2019-05-10T03:15:16.686Z,77.37
2019-05-10T03:17:24.486Z,77.91
2019-05-10T03:19:34.362Z,77.12
2019-05-10T03:21:46.387Z,76.63
2019-05-10T03:23:53.887Z,76.06
2019-05-10T03:26:01.997Z,76.28
2019-05-10T03:28:09.202Z,76.39
2019-05-10T03:30:16.948Z,75.99
2019-05-10T03:32:24.333Z,76.45
2019-05-10T03:34:31.700Z,75.73
2019-05-10T03:36:39.893Z,76.45
2019-05-10T03:38:47.812Z,76.65
2019-05-10T03:40:55.362Z,76.51
2019-05-10T03:43:02.595Z,75.42
2019-05-10T03:45:10.604Z,76.20
2019-05-10T03:47:17.947Z,77.17
2019-05-10T03:49:25.172Z,77.12
2019-05-10T03:51:32.376Z,77.40
2019-05-10T03:53:39.646Z,77.34
2019-05-10T03:55:46.903Z,77.64
2019-05-10T03:57:54.127Z,77.50
2019-05-10T04:00:01.300Z,77.10
2019-05-10T04:02:08.662Z,77.18
2019-05-10T04:04:16.129Z,77.21
2019-05-10T04:06:23.455Z,77.43
2019-05-10T04:08:30.886Z,77.39
2019-05-10T04:10:38.215Z,76.71
2019-05-10T04:12:45.442Z,76.53
2019-05-10T04:14:52.764Z,77.46
2019-05-10T04:17:00.031Z,76.53
2019-05-10T04:19:07.345Z,77.08
2019-05-10T04:21:14.570Z,77.57
2019-05-10T04:23:22.042Z,75.23
2019-05-10T04:25:29.518Z,77.09
2019-05-10T04:27:36.842Z,76.65
2019-05-10T04:29:44.189Z,77.39
2019-05-10T04:31:51.520Z,77.02
2019-05-10T04:33:58.871Z,77.42
2019-05-10T04:36:06.190Z,77.34
2019-05-10T04:38:14.433Z,77.95
2019-05-10T04:40:21.786Z,78.38
2019-05-10T04:42:29.072Z,77.18
2019-05-10T04:44:36.257Z,76.41
2019-05-10T04:46:43.631Z,76.08
2019-05-10T04:48:50.929Z,78.35
2019-05-10T04:50:58.365Z,79.92
2019-05-10T04:53:05.741Z,77.69
2019-05-10T04:55:13.565Z,79.16
2019-05-10T04:57:20.826Z,79.33
2019-05-10T04:59:28.222Z,79.82
2019-05-10T05:01:35.620Z,80.34
2019-05-10T05:03:43.060Z,79.78
2019-05-10T05:05:50.367Z,79.06
2019-05-10T05:07:57.715Z,78.62
2019-05-10T05:10:05.535Z,80.26
2019-05-10T05:12:12.883Z,80.92
2019-05-10T05:14:21.147Z,80.72
2019-05-10T05:16:28.698Z,79.42
2019-05-10T05:18:36.061Z,80.73
2019-05-10T05:20:43.791Z,81.03
2019-05-10T05:22:51.160Z,80.66
2019-05-10T05:25:01.089Z,79.60
2019-05-10T05:27:07.578Z,80.78
2019-05-10T05:29:14.979Z,77.87
2019-05-10T05:31:22.221Z,79.03
2019-05-10T05:33:29.482Z,80.20
2019-05-10T05:35:36.823Z,80.93
2019-05-10T05:37:44.157Z,78.31
2019-05-10T05:39:51.538Z,81.40
2019-05-10T05:41:58.853Z,81.02
2019-05-10T05:44:06.404Z,80.81
2019-05-10T05:46:14.638Z,79.59
2019-05-10T05:48:23.102Z,78.24
2019-05-10T05:50:31.266Z,79.24
2019-05-10T05:52:38.666Z,78.03
2019-05-10T05:54:46.010Z,80.84
2019-05-10T05:56:53.332Z,81.78
2019-05-10T05:59:00.676Z,81.40
2019-05-10T06:01:08.183Z,80.95
2019-05-10T06:03:19.403Z,81.88
2019-05-10T06:05:33.953Z,83.28
2019-05-10T06:07:38.054Z,82.53
2019-05-10T06:09:43.064Z,82.43
2019-05-10T06:11:50.363Z,82.09
2019-05-10T06:14:03.244Z,82.20
2019-05-10T06:16:12.895Z,82.31
2019-05-10T06:18:15.929Z,81.85
2019-05-10T06:20:23.371Z,80.49
2019-05-10T06:22:30.757Z,81.60
2019-05-10T06:24:37.941Z,82.08
2019-05-10T06:26:45.537Z,82.66
2019-05-10T06:28:59.568Z,81.66
2019-05-10T06:31:02.161Z,83.41
2019-05-10T06:33:12.574Z,81.65
2019-05-10T06:35:20.797Z,78.83
2019-05-10T06:37:31.337Z,78.53
2019-05-10T06:39:37.480Z,75.59
2019-05-10T06:41:50.110Z,79.36
2019-05-10T06:43:54.107Z,78.45
2019-05-10T06:46:01.568Z,75.21
2019-05-10T06:48:09.051Z,79.69
2019-05-10T06:50:17.399Z,81.87
2019-05-10T06:52:27.998Z,79.42
2019-05-10T06:54:33.992Z,79.68
2019-05-10T06:56:41.254Z,76.18
2019-05-10T06:58:48.672Z,78.21
2019-05-10T07:00:56.270Z,78.78
2019-05-10T07:03:03.821Z,77.96
2019-05-10T07:05:12.339Z,78.76
2019-05-10T07:07:33.016Z,79.20
2019-05-10T07:09:29.131Z,81.07
2019-05-10T07:11:36.751Z,79.23
2019-05-10T07:13:47.241Z,78.37
2019-05-10T07:15:53.557Z,76.87
2019-05-10T07:18:00.908Z,77.88
2019-05-10T07:20:09.029Z,79.30
2019-05-10T07:22:21.628Z,79.24
2019-05-10T07:24:27.150Z,77.31
2019-05-10T07:26:34.636Z,75.36
2019-05-10T07:28:42.003Z,77.09
2019-05-10T07:30:49.674Z,77.00
2019-05-10T07:32:59.777Z,78.27
2019-05-10T07:35:06.296Z,78.28
2019-05-10T07:37:13.752Z,77.70
2019-05-10T07:39:21.208Z,76.20
2019-05-10T07:41:29.249Z,77.27
2019-05-10T07:43:36.630Z,78.16
2019-05-10T07:45:44.105Z,76.16
2019-05-10T07:47:51.618Z,78.91
2019-05-10T07:50:03.981Z,76.19
2019-05-10T07:52:08.190Z,77.23
2019-05-10T07:54:15.705Z,76.37
2019-05-10T07:56:23.372Z,76.64
2019-05-10T07:58:31.515Z,75.81
2019-05-10T08:00:44.389Z,75.41
2019-05-10T08:02:55.650Z,76.36
2019-05-10T08:04:58.565Z,75.71
2019-05-10T08:07:09.794Z,75.26
2019-05-10T08:09:16.329Z,75.15
2019-05-10T08:11:24.967Z,75.60
2019-05-10T08:13:32.622Z,75.87
2019-05-10T08:15:40.120Z,77.51
2019-05-10T08:17:48.709Z,75.57
2019-05-10T08:19:56.646Z,75.65
2019-05-10T08:22:05.014Z,75.23
2019-05-10T08:24:16.110Z,74.86
2019-05-10T08:26:24.590Z,73.00
2019-05-10T08:28:35.715Z,73.77
2019-05-10T08:30:51.869Z,74.26
2019-05-10T08:32:53.594Z,77.07
2019-05-10T08:35:05.023Z,74.43
2019-05-10T08:37:12.688Z,74.24
2019-05-10T08:39:22.196Z,74.25
2019-05-10T08:41:28.925Z,74.66
2019-05-10T08:43:38.964Z,74.11
2019-05-10T08:45:49.539Z,74.73
2019-05-10T08:48:00.901Z,74.84
2019-05-10T08:50:13.882Z,74.36
2019-05-10T08:52:30.906Z,73.89
2019-05-10T08:54:33.463Z,74.57
2019-05-10T08:56:46.437Z,74.45
2019-05-10T08:58:53.353Z,74.77
2019-05-10T09:01:15.394Z,73.82
2019-05-10T09:03:17.861Z,72.87
2019-05-10T09:05:22.606Z,75.15
2019-05-10T09:07:33.977Z,73.48
2019-05-10T09:09:45.562Z,75.73
2019-05-10T09:11:49.227Z,73.39
2019-05-10T09:13:57.834Z,74.96
2019-05-10T09:16:05.991Z,76.51
2019-05-10T09:18:14.079Z,76.76
2019-05-10T09:20:26.411Z,74.67
2019-05-10T09:22:34.125Z,73.07
2019-05-10T09:24:48.757Z,76.95
2019-05-10T09:26:52.833Z,75.19
2019-05-10T09:29:01.619Z,73.66
2019-05-10T09:31:18.756Z,72.02
2019-05-10T09:33:18.978Z,73.12
2019-05-10T09:35:26.842Z,73.64
2019-05-10T09:37:34.374Z,72.73
2019-05-10T09:39:42.520Z,73.38
2019-05-10T09:41:52.806Z,73.37
2019-05-10T09:43:59.777Z,75.53
2019-05-10T09:46:07.550Z,76.05
2019-05-10T09:48:15.084Z,73.91
2019-05-10T09:50:23.021Z,72.81
2019-05-10T09:52:30.651Z,73.86
2019-05-10T09:54:38.224Z,73.81
2019-05-10T09:56:51.751Z,74.03
2019-05-10T09:58:55.005Z,75.16
2019-05-10T10:01:13.961Z,74.35
2019-05-10T10:03:12.947Z,72.57
2019-05-10T10:05:20.510Z,71.80
2019-05-10T10:07:29.332Z,71.55
2019-05-10T10:09:44.555Z,71.69
2019-05-10T10:11:57.371Z,70.81
2019-05-10T10:13:59.355Z,71.45
2019-05-10T10:16:10.324Z,71.82
2019-05-10T10:18:21.183Z,72.08
2019-05-10T10:20:23.988Z,75.19
2019-05-10T10:22:31.417Z,73.91
2019-05-10T10:24:41.096Z,73.90
2019-05-10T10:26:48.259Z,74.33
2019-05-10T10:28:59.518Z,72.83
2019-05-10T10:31:08.471Z,72.82
2019-05-10T10:33:20.951Z,73.66
2019-05-10T10:35:27.633Z,71.31
2019-05-10T10:37:37.671Z,70.28
2019-05-10T10:39:44.662Z,70.47
2019-05-10T10:41:52.319Z,73.01
2019-05-10T10:44:00.285Z,72.12
2019-05-10T10:46:12.483Z,70.53
2019-05-10T10:48:17.987Z,70.36
2019-05-10T10:50:27.591Z,67.93
2019-05-10T10:52:37.489Z,68.97
2019-05-10T10:54:44.358Z,69.89
2019-05-10T10:56:51.800Z,70.67
2019-05-10T10:58:59.163Z,70.45
2019-05-10T11:01:19.930Z,69.61
2019-05-10T11:03:17.283Z,69.02
2019-05-10T11:05:24.831Z,70.66
2019-05-10T11:07:33.765Z,69.44
2019-05-10T11:09:41.429Z,69.87
2019-05-10T11:11:50.981Z,69.65
2019-05-10T11:14:06.614Z,69.21
2019-05-10T11:16:14.180Z,70.21
2019-05-10T11:18:16.765Z,69.62
2019-05-10T11:20:24.129Z,70.70
2019-05-10T11:22:31.876Z,70.33
2019-05-10T11:24:39.221Z,71.51
2019-05-10T11:26:46.625Z,71.20
2019-05-10T11:28:54.065Z,70.34
2019-05-10T11:31:01.349Z,70.87
2019-05-10T11:33:23.806Z,69.97
2019-05-10T11:35:27.800Z,69.39
2019-05-10T11:37:32.805Z,70.14
2019-05-10T11:39:44.855Z,67.56
2019-05-10T11:41:45.303Z,67.73
2019-05-10T11:43:57.981Z,67.33
2019-05-10T11:46:02.201Z,67.30
2019-05-10T11:48:10.889Z,68.49
2019-05-10T11:50:28.787Z,67.58
2019-05-10T11:52:29.117Z,69.37
2019-05-10T11:54:37.105Z,69.03
2019-05-10T11:56:44.909Z,68.65
2019-05-10T11:59:04.716Z,68.42
2019-05-10T12:01:12.930Z,67.77
2019-05-10T12:03:15.450Z,68.72
2019-05-10T12:05:22.712Z,66.97
2019-05-10T12:09:37.892Z,65.92
2019-05-10T12:11:51.615Z,68.11
2019-05-10T12:13:57.419Z,67.33
2019-05-10T12:16:03.384Z,65.66
2019-05-10T12:18:14.689Z,65.82
2019-05-10T12:20:26.878Z,64.75
2019-05-10T12:22:37.588Z,65.09
2019-05-10T12:24:52.205Z,65.33
2019-05-10T12:26:59.026Z,67.07
2019-05-10T12:27:12.677Z,64.47
2019-05-10T12:29:02.750Z,65.99
2019-05-10T12:31:07.677Z,65.20
2019-05-10T12:33:23.894Z,63.24
2019-05-10T12:35:26.539Z,64.60
2019-05-10T12:37:32.530Z,63.82
2019-05-10T12:39:39.892Z,65.06
2019-05-10T12:41:49.796Z,63.27
2019-05-10T12:44:02.877Z,62.84
2019-05-10T12:46:05.490Z,62.73
2019-05-10T12:48:12.820Z,62.37
2019-05-10T12:50:21.096Z,64.94
2019-05-10T12:52:28.981Z,62.65
2019-05-10T12:54:37.625Z,63.55
2019-05-10T12:56:46.142Z,62.86
2019-05-10T12:58:57.897Z,63.12
2019-05-10T13:01:02.707Z,65.58
2019-05-10T13:03:13.131Z,63.50
2019-05-10T13:05:31.234Z,63.60
2019-05-10T13:07:29.243Z,62.59
2019-05-10T13:09:40.597Z,62.88
2019-05-10T13:11:45.672Z,61.88
2019-05-10T13:13:52.899Z,62.03
2019-05-10T13:16:03.540Z,63.86
2019-05-10T13:18:09.338Z,61.85
2019-05-10T13:20:17.264Z,62.48
2019-05-10T13:22:24.631Z,63.19
2019-05-10T13:24:31.970Z,61.48
2019-05-10T13:26:39.191Z,60.21
2019-05-10T13:28:46.593Z,60.86
2019-05-10T13:30:53.999Z,59.50
2019-05-10T13:33:01.265Z,59.38
2019-05-10T13:35:09.164Z,60.12
2019-05-10T13:37:23.076Z,58.00
2019-05-10T13:39:27.603Z,57.22
2019-05-10T13:41:34.570Z,58.68
2019-05-10T13:43:41.964Z,59.26
2019-05-10T13:45:49.319Z,57.44
2019-05-10T13:47:56.803Z,56.76
2019-05-10T13:50:04.119Z,57.63
2019-05-10T13:52:11.631Z,56.97
2019-05-10T13:54:18.971Z,56.94
2019-05-10T13:56:26.314Z,55.42
2019-05-10T13:58:33.715Z,57.44
2019-05-10T14:00:41.167Z,58.11
2019-05-10T14:02:48.395Z,55.50
2019-05-10T14:04:55.720Z,56.66
2019-05-10T14:07:03.031Z,54.12
2019-05-10T14:09:10.567Z,54.00
2019-05-10T14:11:18.358Z,55.24
2019-05-10T14:13:25.741Z,54.55
2019-05-10T14:15:33.971Z,54.12
2019-05-10T14:17:41.303Z,54.27
2019-05-10T14:19:48.541Z,55.18
2019-05-10T14:21:55.913Z,55.94
2019-05-10T14:24:03.420Z,57.66
2019-05-10T14:26:16.007Z,58.07
2019-05-10T14:28:19.956Z,58.42
2019-05-10T14:30:27.329Z,56.95
2019-05-10T14:32:34.782Z,58.65
2019-05-10T14:34:44.224Z,58.20
2019-05-10T14:36:51.288Z,57.46
2019-05-10T14:38:58.740Z,56.32
2019-05-10T14:41:10.985Z,56.44
2019-05-10T14:43:15.327Z,58.08
2019-05-10T14:45:23.048Z,56.68
2019-05-10T14:47:30.396Z,56.49
2019-05-10T14:49:42.104Z,56.31
2019-05-10T14:51:58.510Z,56.42
2019-05-10T14:53:58.179Z,56.48
2019-05-10T14:56:08.123Z,55.29
2019-05-10T14:58:14.977Z,55.64
2019-05-10T15:00:23.360Z,55.16
2019-05-10T15:02:30.780Z,55.53
2019-05-10T15:04:46.870Z,54.65
2019-05-10T15:06:47.122Z,55.08
2019-05-10T15:08:54.607Z,55.21
2019-05-10T15:11:02.050Z,55.34
2019-05-10T15:13:09.798Z,55.06
2019-05-10T15:15:17.593Z,54.96
2019-05-10T15:17:25.017Z,54.30
2019-05-10T15:19:32.573Z,54.50
2019-05-10T15:21:40.276Z,54.15
2019-05-10T15:23:48.172Z,54.43
2019-05-10T15:25:57.929Z,54.21
2019-05-10T15:28:05.628Z,54.82
2019-05-10T15:30:14.383Z,54.83
2019-05-10T15:32:22.213Z,55.00
2019-05-10T15:34:30.786Z,54.13
2019-05-10T15:36:38.766Z,53.74
2019-05-10T15:38:50.352Z,54.65
2019-05-10T15:40:55.621Z,53.80
2019-05-10T15:43:03.534Z,53.39
2019-05-10T15:45:14.145Z,54.29
2019-05-10T15:47:22.456Z,55.33
2019-05-10T15:49:30.382Z,53.31
2019-05-10T15:51:37.928Z,53.63
2019-05-10T15:53:45.854Z,54.33
2019-05-10T15:55:59.127Z,53.61
2019-05-10T15:58:03.493Z,54.63
2019-05-10T16:00:12.671Z,53.56
2019-05-10T16:02:20.296Z,53.29
2019-05-10T16:04:27.788Z,53.57
2019-05-10T16:06:37.729Z,53.21
2019-05-10T16:08:44.263Z,56.68
2019-05-10T16:10:51.627Z,55.01
2019-05-10T16:12:59.208Z,54.07
2019-05-10T16:15:13.634Z,53.24
2019-05-10T16:17:23.173Z,55.67
2019-05-10T16:19:26.919Z,54.83
2019-05-10T16:21:34.291Z,55.23
2019-05-10T16:23:46.747Z,54.23
2019-05-10T16:25:50.860Z,55.87
2019-05-10T16:27:58.316Z,55.81
2019-05-10T16:30:11.881Z,56.98
2019-05-10T16:32:16.670Z,57.72
2019-05-10T16:34:26.455Z,57.66
2019-05-10T16:36:33.194Z,58.08
2019-05-10T16:38:40.744Z,58.63
2019-05-10T16:40:56.822Z,58.53
2019-05-10T16:42:57.859Z,58.63
2019-05-10T16:45:05.676Z,60.07
2019-05-10T16:47:13.097Z,60.08
2019-05-10T16:49:20.716Z,59.50
2019-05-10T16:51:28.141Z,60.10
2019-05-10T16:53:37.872Z,59.71
2019-05-10T16:55:44.761Z,60.77
2019-05-10T16:57:52.197Z,60.76
2019-05-10T17:00:02.193Z,59.97
2019-05-10T17:02:11.824Z,60.18
2019-05-10T17:04:18.008Z,60.36
2019-05-10T17:06:25.466Z,61.07
2019-05-10T17:08:36.573Z,62.12
2019-05-10T17:10:42.189Z,61.80
2019-05-10T17:12:49.551Z,61.20
2019-05-10T17:15:02.332Z,62.14
2019-05-10T17:17:06.098Z,61.60
2019-05-10T17:19:13.483Z,61.51
2019-05-10T17:21:20.858Z,61.36
2019-05-10T17:23:28.509Z,61.77
2019-05-10T17:25:40.712Z,61.61
2019-05-10T17:27:50.463Z,61.55
2019-05-10T17:29:54.631Z,61.77
2019-05-10T17:32:01.962Z,62.32
2019-05-10T17:34:09.368Z,61.80
2019-05-10T17:36:19.866Z,62.83
2019-05-10T17:38:25.880Z,62.79
2019-05-10T17:40:33.466Z,64.16
2019-05-10T17:42:41.581Z,64.00
2019-05-10T17:44:55.118Z,64.47
2019-05-10T17:46:59.080Z,64.41
2019-05-10T17:49:06.556Z,64.51
2019-05-10T17:51:14.032Z,64.93
2019-05-10T17:53:21.581Z,64.64
2019-05-10T17:55:28.899Z,64.88
2019-05-10T17:57:36.265Z,65.52
2019-05-10T17:59:46.848Z,65.11
2019-05-10T18:01:52.782Z,64.86
2019-05-10T18:04:00.071Z,65.55
2019-05-10T18:06:22.690Z,65.73
2019-05-10T18:08:16.889Z,65.73
2019-05-10T18:10:24.480Z,66.21
2019-05-10T18:12:32.133Z,67.20
2019-05-10T18:14:40.147Z,67.28
2019-05-10T18:16:50.091Z,67.17
2019-05-10T18:18:57.370Z,67.29
2019-05-10T18:21:05.070Z,67.38
2019-05-10T18:23:20.050Z,67.71
2019-05-10T18:25:22.362Z,68.34
2019-05-10T18:27:30.013Z,68.31
2019-05-10T18:29:37.514Z,68.73
2019-05-10T18:31:54.459Z,68.78
2019-05-10T18:33:55.942Z,69.28
2019-05-10T18:36:03.576Z,69.72
2019-05-10T18:38:11.101Z,69.32
2019-05-10T18:40:19.010Z,69.60
2019-05-10T18:42:27.972Z,70.31
2019-05-10T18:44:36.162Z,70.03
2019-05-10T18:46:43.944Z,70.34
2019-05-10T18:48:51.580Z,70.53
2019-05-10T18:50:59.372Z,70.62
2019-05-10T18:53:06.904Z,70.33
2019-05-10T18:55:14.810Z,71.15
2019-05-10T18:57:22.537Z,71.51
2019-05-10T18:59:30.216Z,71.48
2019-05-10T19:01:39.195Z,71.14
2019-05-10T19:03:47.375Z,71.43
2019-05-10T19:05:55.065Z,71.43
2019-05-10T19:08:05.631Z,71.56
2019-05-10T19:10:12.481Z,71.92
2019-05-10T19:12:22.729Z,72.00
2019-05-10T19:14:30.044Z,72.39
2019-05-10T19:16:38.773Z,72.07
2019-05-10T19:18:46.204Z,72.73
2019-05-10T19:20:55.151Z,72.80
2019-05-10T19:23:05.339Z,72.77
2019-05-10T19:25:14.496Z,72.76
2019-05-10T19:27:24.914Z,73.34
2019-05-10T19:29:31.264Z,73.29
2019-05-10T19:31:40.396Z,73.13
2019-05-10T19:33:48.044Z,73.28
2019-05-10T19:35:55.409Z,73.46
2019-05-10T19:38:02.768Z,72.87
2019-05-10T19:40:10.952Z,73.47
2019-05-10T19:42:18.409Z,74.15
2019-05-10T19:44:25.930Z,74.17
2019-05-10T19:46:39.109Z,74.51
2019-05-10T19:48:44.168Z,74.87
2019-05-10T19:50:51.655Z,74.46
2019-05-10T19:53:03.746Z,75.05
2019-05-10T19:55:12.944Z,75.52
2019-05-10T19:57:18.917Z,75.26
2019-05-10T19:59:27.473Z,74.96
2019-05-10T20:01:34.911Z,74.99
2019-05-10T20:03:42.366Z,74.71
2019-05-10T20:05:49.752Z,75.25
2019-05-10T20:07:57.064Z,75.46
2019-05-10T20:10:08.383Z,75.15
2019-05-10T20:12:15.885Z,75.63
2019-05-10T20:14:23.555Z,76.41
2019-05-10T20:16:31.015Z,75.50
2019-05-10T20:18:38.431Z,74.91
2019-05-10T20:20:45.861Z,75.79
2019-05-10T20:22:54.291Z,75.93
2019-05-10T20:25:01.735Z,75.59
2019-05-10T20:27:09.203Z,76.72
2019-05-10T20:29:17.287Z,76.89
2019-05-10T20:31:25.127Z,76.25
2019-05-10T20:33:32.500Z,75.88
2019-05-10T20:35:39.871Z,75.75
2019-05-10T20:38:00.786Z,76.46
2019-05-10T20:39:57.042Z,77.03
2019-05-10T20:42:04.416Z,76.73
2019-05-10T20:44:12.923Z,77.46
2019-05-10T20:46:20.525Z,76.81
2019-05-10T20:48:27.907Z,77.55
2019-05-10T20:50:35.591Z,77.01
2019-05-10T20:52:43.063Z,77.49
2019-05-10T20:54:50.545Z,77.42
2019-05-10T20:56:58.022Z,76.85
2019-05-10T20:59:05.544Z,77.54
2019-05-10T21:01:12.939Z,77.61
2019-05-10T21:03:21.690Z,77.56
2019-05-10T21:05:29.091Z,77.67
2019-05-10T21:07:36.764Z,77.69
2019-05-10T21:09:44.305Z,78.02
2019-05-10T21:11:51.722Z,78.29
2019-05-10T21:14:00.471Z,77.29
2019-05-10T21:16:08.140Z,77.13
2019-05-10T21:18:15.598Z,76.49
2019-05-10T21:20:22.962Z,77.39
2019-05-10T21:22:30.387Z,77.43
2019-05-10T21:24:37.875Z,77.66
2019-05-10T21:26:45.579Z,78.42
2019-05-10T21:28:52.956Z,77.86
2019-05-10T21:31:00.495Z,78.86
2019-05-10T21:33:08.072Z,77.96
2019-05-10T21:35:15.767Z,77.64
2019-05-10T21:37:23.262Z,79.02
2019-05-10T21:39:30.621Z,78.77
2019-05-10T21:41:39.564Z,77.97
2019-05-10T21:43:47.347Z,78.12
2019-05-10T21:45:55.048Z,78.54
2019-05-10T21:48:02.737Z,78.29
2019-05-10T21:50:10.454Z,78.26
2019-05-10T21:52:17.903Z,78.31
2019-05-10T21:54:25.474Z,78.53
2019-05-10T21:56:35.596Z,78.24
2019-05-10T21:58:42.485Z,78.40
2019-05-10T22:00:53.467Z,79.02
2019-05-10T22:03:00.829Z,79.07
2019-05-10T22:05:08.535Z,78.58
2019-05-10T22:07:16.110Z,77.67
2019-05-10T22:09:23.339Z,79.62
2019-05-10T22:11:30.798Z,79.24
2019-05-10T22:13:38.152Z,79.52
2019-05-10T22:15:46.248Z,79.04
2019-05-10T22:17:53.694Z,79.94
2019-05-10T22:20:01.146Z,80.59
2019-05-10T22:22:08.440Z,80.89
2019-05-10T22:24:15.777Z,80.68
2019-05-10T22:26:23.085Z,80.46
2019-05-10T22:28:30.336Z,80.20
2019-05-10T22:30:38.181Z,80.09
2019-05-10T22:32:45.558Z,80.72
2019-05-10T22:34:52.941Z,79.54
2019-05-10T22:37:00.363Z,80.24
2019-05-10T22:39:08.705Z,79.15
2019-05-10T22:41:15.928Z,80.28
2019-05-10T22:43:23.230Z,79.83
2019-05-10T22:45:30.728Z,80.04
2019-05-10T22:47:38.099Z,80.03
2019-05-10T22:49:45.655Z,79.93
2019-05-10T22:51:52.954Z,78.84
2019-05-10T22:54:00.472Z,79.72
2019-05-10T22:56:07.919Z,78.08
2019-05-10T22:58:15.238Z,79.60
2019-05-10T23:00:22.808Z,78.01
2019-05-10T23:02:30.197Z,77.80
2019-05-10T23:04:37.545Z,78.17
2019-05-10T23:06:44.913Z,78.65
2019-05-10T23:08:52.300Z,79.49
2019-05-10T23:10:59.731Z,80.00
2019-05-10T23:13:07.153Z,80.26
2019-05-10T23:15:14.970Z,80.81
2019-05-10T23:17:22.339Z,79.62
2019-05-10T23:19:29.589Z,79.34
2019-05-10T23:21:36.951Z,79.95
2019-05-10T23:23:44.358Z,79.48
2019-05-10T23:25:51.993Z,78.74
2019-05-10T23:27:59.354Z,80.14
2019-05-10T23:30:07.742Z,80.34
2019-05-10T23:32:15.021Z,80.12
2019-05-10T23:34:22.447Z,80.56
2019-05-10T23:36:29.967Z,81.62
2019-05-10T23:38:37.332Z,81.46
2019-05-10T23:40:44.625Z,81.30
2019-05-10T23:42:52.137Z,82.02
2019-05-10T23:44:59.403Z,81.82
2019-05-10T23:47:06.644Z,81.63
2019-05-10T23:49:14.063Z,81.58
2019-05-10T23:51:21.347Z,81.49
2019-05-10T23:53:28.596Z,79.59
2019-05-10T23:55:35.840Z,77.12
2019-05-10T23:57:43.090Z,78.57
2019-05-10T23:59:50.445Z,78.62
